Terminal Aerodrome Forecast
Issued by NWS

Current Version | Previous Version | Text Only | Print | Product List | Glossary On
Versions: 1 2 3 4 5 6 7 8 9 10 11 12 13 14
521
FTUS44 KTSA 131140
TAFXNA
TAF
KXNA 131140Z 1312/1412 05010KT P6SM SCT200
     FM131700 11009KT P6SM BKN250
     FM140300 13009KT P6SM SCT035 BKN250
     FM140500 14012KT P6SM BKN030
     FM140700 15011KT P6SM BKN025
     FM141000 16010KT 3SM -FZDZ BR BKN012=

USA.gov is the U.S. government's official web portal to all federal, state and local government web resources and services.